Flight Track Log - Related Links

Times and Time Zones

All times are in EDT time to prevent confusion due to time zone crossing. See the UAL1259 flight status page for this flight to view local times or setup timezone preferences in your user account.

Time Position Orientation Groundspeed Altitude Reporting Facility
EDT Latitude Longitude Course Direction KTS MPH feet Rate Location/Type
Sat 12:48:00 PM 19.7536 -81.3413 North  Level FlightAware Approximate
Sat 12:49:00 PM 19.8688 -81.3372 North  Level FlightAware Approximate
Sat 12:50:00 PM 19.9840 -81.3331 North  Level FlightAware Approximate
Sat 12:51:00 PM 20.0992 -81.3289 North  Level FlightAware Approximate
Sat 12:52:00 PM 20.2144 -81.3248 North  Level FlightAware Approximate
Sat 12:53:00 PM 20.3296 -81.3206 North  Level FlightAware Approximate
Sat 12:54:00 PM 20.4448 -81.3165 North  Level FlightAware Approximate
Sat 12:55:00 PM 20.5600 -81.3123 North  Level FlightAware Approximate
Sat 12:56:00 PM 20.6752 -81.3082 North  Level FlightAware Approximate
Sat 12:57:00 PM 20.7904 -81.3040 North  Level FlightAware Approximate
Sat 12:58:00 PM 20.9056 -81.2998 North  Level FlightAware Approximate
Sat 12:59:00 PM 20.9950 -81.2975 North  Level FlightAware Approximate
Sat 01:00:00 PM 21.1102 -81.2945 North  Level FlightAware Approximate
Sat 01:01:00 PM 21.2254 -81.2914 North  Level FlightAware Approximate
Sat 01:02:00 PM 21.3407 -81.2884 North  Level FlightAware Approximate
Sat 01:03:00 PM 21.4559 -81.2853 North  Level FlightAware Approximate
Sat 01:04:00 PM 21.5711 -81.2823 North  Level FlightAware Approximate
Sat 01:05:00 PM 21.6863 -81.2792 North  Level FlightAware Approximate
Sat 01:06:00 PM 21.8016 -81.2761 North  Level FlightAware Approximate
Sat 01:07:00 PM 21.9168 -81.2731 North  Level FlightAware Approximate
Sat 01:08:00 PM 22.0320 -81.2700 North  Level FlightAware Approximate
Sat 01:09:00 PM 22.1473 -81.2669 North  Level FlightAware Approximate
Sat 01:10:00 PM 22.2625 -81.2638 North  Level FlightAware Approximate
Sat 01:11:00 PM 22.3777 -81.2607 North  Level FlightAware Approximate
Sat 01:12:00 PM 22.4930 -81.2576 North  Level FlightAware Approximate
Sat 01:13:00 PM 22.6082 -81.2545 North  Level FlightAware Approximate
Sat 01:14:00 PM 22.7234 -81.2514 North  Level FlightAware Approximate
Sat 01:14:27 PM 22.6106 -81.3853 33° Northeast 471 542 32,000  Level Miami Center
Sat 01:15:00 PM 22.8386 -81.2483 North  Level FlightAware Approximate
Sat 01:15:27 PM 22.7408 -81.3628 North 459 528 31,900  Level Miami Center
Sat 01:16:00 PM 22.9539 -81.2452 North  Level FlightAware Approximate
Sat 01:16:27 PM 22.8594 -81.3036 25° Northeast 457 526 32,000  Level Miami Center
Sat 01:17:00 PM 23.0691 -81.2421 North  Level FlightAware Approximate
Sat 01:17:27 PM 22.9803 -81.2447 24° Northeast 464 534 31,900  Level Miami Center
Sat 01:18:00 PM 23.1843 -81.2389 North  Level FlightAware Approximate
Sat 01:18:27 PM 23.1008 -81.1833 25° Northeast 472 543 31,900  Level Miami Center
Sat 01:19:00 PM 23.2858 -81.1682 33° Northeast  Level FlightAware Approximate
Sat 01:19:27 PM 23.2217 -81.1219 25° Northeast 472 543 32,000  Level Miami Center
Sat 01:20:27 PM 23.3425 -81.0625 24° Northeast 472 543 32,000  Level Miami Center
Sat 01:21:27 PM 23.4631 -81.0008 25° Northeast 472 543 32,000  Level Miami Center
Sat 01:22:27 PM 23.5839 -80.9414 24° Northeast 472 543 32,000  Level Miami Center
Sat 01:23:27 PM 23.7194 -80.8708 25° Northeast 478 550 32,000  Level Miami Center
Sat 01:24:27 PM 23.8381 -80.8133 24° Northeast 473 544 32,000  Level Miami Center
Sat 01:25:27 PM 23.9586 -80.7489 26° Northeast 468 539 32,000  Level Miami Center
Sat 01:26:27 PM 24.0792 -80.6889 24° Northeast 468 539 32,000  Level Miami Center
Sat 01:27:27 PM 24.2019 -80.6267 25° Northeast 468 539 32,000 500 Level Miami Center
Sat 01:28:27 PM 24.3206 -80.5664 25° Northeast 473 544 33,000 500 Climbing Miami Center
Sat 01:29:27 PM 24.4411 -80.5039 25° Northeast 468 539 33,000  Level Miami Center
Sat 01:30:27 PM 24.5575 -80.4433 25° Northeast 468 539 33,000  Level Miami Center
Sat 01:31:27 PM 24.6653 -80.3939 23° Northeast 468 539 33,000  Level Miami Center
Sat 01:32:27 PM 24.7836 -80.3308 26° Northeast 468 539 33,000 -50 Level Miami Center
Sat 01:33:28 PM 24.9000 -80.2700 25° Northeast 463 533 32,900  Descending Miami Center
Sat 01:34:27 PM 25.0206 -80.2092 25° Northeast 463 533 33,000 50 Climbing Miami Center
Sat 01:35:27 PM 25.1389 -80.1481 25° Northeast 468 539 33,000  Level Miami Center
Sat 01:36:27 PM 25.2592 -80.0869 25° Northeast 468 539 33,000  Level Miami Center
Sat 01:37:27 PM 25.3775 -80.0236 26° Northeast 468 539 33,000 -50 Level Miami Center
Sat 01:38:27 PM 25.4958 -79.9622 25° Northeast 468 539 32,900  Descending Miami Center
Sat 01:39:27 PM 25.6164 -79.9008 25° Northeast 468 539 33,000 50 Climbing Miami Center
Sat 01:40:27 PM 25.7344 -79.8392 25° Northeast 468 539 33,000  Level Miami Center
Sat 01:41:27 PM 25.8550 -79.7750 26° Northeast 468 539 33,000  Level Miami Center
Sat 01:42:27 PM 25.9753 -79.7111 26° Northeast 468 539 33,000 -50 Level Miami Center
Sat 01:43:27 PM 26.0933 -79.6514 24° Northeast 468 539 32,900  Descending Miami Center
Sat 01:44:27 PM 26.2114 -79.5892 25° Northeast 468 539 33,000 50 Climbing Miami Center
Sat 01:45:27 PM 26.3297 -79.5247 26° Northeast 468 539 33,000  Level Miami Center
Sat 01:46:27 PM 26.4603 -79.4581 25° Northeast 468 539 33,000  Level Miami Center
Sat 01:47:27 PM 26.5681 -79.4000 26° Northeast 468 539 33,000  Level Miami Center
Sat 01:48:27 PM 26.6986 -79.3308 25° Northeast 468 539 33,000  Level Miami Center
Sat 01:49:27 PM 26.8167 -79.2681 25° Northeast 468 539 33,000  Level Miami Center
Sat 01:50:27 PM 26.9242 -79.2097 26° Northeast 468 539 33,000  Level Miami Center
Sat 01:51:27 PM 27.0461 -79.1517 23° Northeast 468 539 33,000  Level Miami Center
Sat 01:52:27 PM 27.1622 -79.0839 27° Northeast 468 539 33,000  Level Miami Center
Sat 01:53:27 PM 27.2781 -79.0206 26° Northeast 468 539 33,000  Level Miami Center
Sat 01:54:27 PM 27.4106 -78.9575 23° Northeast 468 539 33,000  Level Miami Center
Sat 01:55:27 PM 27.5342 -78.9317 10° North 456 525 33,000  Level Miami Center
Sat 01:56:27 PM 27.6639 -78.9131 North 450 518 33,000  Level Miami Center
Sat 01:57:27 PM 27.7789 -78.8964 North 455 524 33,000  Level Miami Center
Sat 01:58:27 PM 27.9169 -78.8753 North 464 534 33,000  Level Miami Center
Sat 01:59:27 PM 28.0467 -78.8586 North 464 534 33,000  Level Miami Center
Sat 02:00:27 PM 28.1764 -78.8397 North 464 534 33,000 -50 Level Miami Center
Sat 02:01:27 PM 28.3039 -78.8231 North 464 534 32,900 -50 Descending Miami Center
Sat 02:02:27 PM 28.4294 -78.8042 North 464 534 32,900 50 Level Miami Center
Sat 02:03:27 PM 28.5569 -78.7850 North 464 534 33,000  Climbing Miami Center
Sat 02:04:27 PM 28.6844 -78.7683 North 464 534 32,900  Descending Miami Center
Sat 02:05:27 PM 28.8142 -78.7492 North 464 534 33,000 50 Climbing Miami Center
Sat 02:06:27 PM 28.9375 -78.7275 North 458 527 33,000  Level Miami Center
Sat 02:07:27 PM 29.0669 -78.7131 North 458 527 33,000  Level Miami Center
Sat 02:08:27 PM 29.1906 -78.6914 North 457 526 33,000 -50 Level Miami Center
Sat 02:09:27 PM 29.3136 -78.6744 North 457 526 32,900 -50 Descending Miami Center
Sat 02:10:27 PM 29.4331 -78.6503 10° North 451 519 32,900 50 Level Miami Center
Sat 02:11:27 PM 29.5667 -78.6381 North 454 522 33,000 55 Climbing Miami Center
Sat 02:12:16 PM 29.6606 -78.6147 12° North 447 514 33,000  Level Jacksonville Center
Sat 02:13:16 PM 29.7828 -78.5928 North 440 506 33,000  Level Jacksonville Center
Sat 02:14:16 PM 29.9139 -78.5772 North 466 536 33,000  Level Jacksonville Center
Sat 02:15:16 PM 30.0447 -78.5594 North 456 525 33,000  Level Jacksonville Center
Sat 02:16:16 PM 30.1669 -78.5369 North 449 517 33,000  Level Jacksonville Center
Sat 02:17:16 PM 30.2794 -78.5247 North 456 525 33,000  Level Jacksonville Center
Sat 02:18:16 PM 30.4039 -78.5047 North 458 527 33,000  Level Jacksonville Center
Sat 02:19:16 PM 30.5264 -78.4844 North 453 521 33,000  Level Jacksonville Center
Sat 02:20:16 PM 30.6594 -78.4664 North 459 528 33,000 -50 Level Jacksonville Center
Sat 02:21:16 PM 30.7900 -78.4458 North 459 528 32,900  Descending Jacksonville Center
Sat 02:22:16 PM 30.9189 -78.4275 North 465 535 33,000 50 Climbing Jacksonville Center
Sat 02:23:16 PM 31.0414 -78.4119 North 459 528 33,000 -50 Level Jacksonville Center
Sat 02:24:16 PM 31.1681 -78.3892 North 459 528 32,900  Descending Jacksonville Center
Sat 02:25:16 PM 31.2967 -78.3706 North 459 528 33,000 50 Climbing Jacksonville Center
Sat 02:26:16 PM 31.4275 -78.3472 North 465 535 33,000  Level Jacksonville Center
Sat 02:27:16 PM 31.5519 -78.3267 North 460 529 33,000  Level Jacksonville Center
Sat 02:28:16 PM 31.6911 -78.3075 North 476 548 33,000  Level Jacksonville Center
Sat 02:29:16 PM 31.8219 -78.2864 North 463 533 33,000 -50 Level Jacksonville Center
Sat 02:30:16 PM 31.9486 -78.2678 North 463 533 32,900  Descending Jacksonville Center
Sat 02:31:16 PM 32.0792 -78.2442 North 468 539 33,000 50 Climbing Jacksonville Center
Sat 02:32:16 PM 32.1931 -78.2236 North 460 529 33,000 -50 Level Jacksonville Center
Sat 02:33:16 PM 32.3219 -78.2022 North 460 529 32,900  Descending Jacksonville Center
Sat 02:34:16 PM 32.4483 -78.1811 North 460 529 33,000 50 Climbing Jacksonville Center
Sat 02:35:16 PM 32.5728 -78.1622 North 460 529 33,000  Level Jacksonville Center
Sat 02:36:16 PM 32.6994 -78.1433 North 460 529 33,000  Level Jacksonville Center
Sat 02:37:16 PM 32.8239 -78.1219 North 460 529 33,000 -50 Level Jacksonville Center
Sat 02:38:16 PM 32.9483 -78.1028 North 460 529 32,900  Descending Jacksonville Center
Sat 02:39:16 PM 33.0728 -78.0814 North 460 529 33,000  Climbing Jacksonville Center
Sat 02:40:16 PM 33.1953 -78.0647 North 454 522 32,900  Descending Jacksonville Center
Sat 02:42:41 PM 33.4839 -78.0167 North 446 513 33,000  Climbing Washington Center
Sat 02:43:41 PM 33.6072 -77.9978 North 446 513 32,900  Descending Washington Center
Sat 02:44:40 PM 33.7267 -77.9789 North 446 513 33,000 50 Climbing Washington Center
Sat 02:45:41 PM 33.8481 -77.9572 North 446 513 33,000  Level Washington Center
Sat 02:46:38 PM 33.9736 -77.9383 North 446 513 33,000  Level Washington Center
Sat 02:47:39 PM 34.0928 -77.9192 North 441 507 33,000  Level Washington Center
Sat 02:48:39 PM 34.2122 -77.8997 North 441 507 33,000  Level Washington Center
Sat 02:49:40 PM 34.3461 -77.8786 North 436 502 33,000  Level Washington Center
Sat 02:50:40 PM 34.4672 -77.8767 North 436 502 33,000  Level Washington Center
Sat 02:51:41 PM 34.5842 -77.8725 North 431 496 33,000  Level Washington Center
Sat 02:52:39 PM 34.7031 -77.8708 North 420 483 33,000  Level Washington Center
Sat 02:53:39 PM 34.7989 -77.8733 359° North 420 483 33,000  Level Washington Center
Sat 02:54:40 PM 34.9242 -77.8669 North 420 483 33,000  Level Washington Center
Sat 02:55:40 PM 35.0433 -77.8625 North 420 483 33,000  Level Washington Center
Sat 02:56:41 PM 35.1664 -77.8608 North 420 483 33,000  Level Washington Center
Sat 02:57:39 PM 35.2833 -77.8617 360° North 420 483 33,000  Level Washington Center
Sat 02:58:39 PM 35.4003 -77.8572 North 420 483 33,000  Level Washington Center
Sat 02:59:40 PM 35.5192 -77.8581 360° North 420 483 33,000  Level Washington Center
Sat 03:00:41 PM 35.6361 -77.8564 North 420 483 33,000  Level Washington Center
Sat 03:01:40 PM 35.7528 -77.8544 North 420 483 33,000  Level Washington Center
Sat 03:02:40 PM 35.8719 -77.8528 North 420 483 33,000  Level Washington Center
Sat 03:03:39 PM 35.9886 -77.8511 North 420 483 33,000  Level Washington Center
Sat 03:04:41 PM 36.1036 -77.8517 360° North 420 483 33,000  Level Washington Center
Sat 03:05:39 PM 36.2203 -77.8500 North 420 483 33,000 -102 Level Washington Center
Sat 03:06:39 PM 36.3372 -77.8481 North 420 483 32,800 -694 Descending Washington Center
Sat 03:07:40 PM 36.4583 -77.8464 North 420 483 31,600 -1,785 Descending Washington Center
Sat 03:08:40 PM 36.5772 -77.8422 North 413 475 29,200 -2,300 Descending Washington Center
Sat 03:09:40 PM 36.6983 -77.8431 360° North 418 481 27,000 -1,091 Descending Washington Center
Sat 03:10:41 PM 36.8156 -77.8128 12° North 423 487 27,000  Level Washington Center
Sat 03:11:39 PM 36.9372 -77.7797 12° North 428 493 27,000  Level Washington Center
Sat 03:12:39 PM 37.0567 -77.7494 11° North 428 493 27,000 -400 Level Washington Center
Sat 03:13:39 PM 37.1761 -77.7189 12° North 433 498 26,200 -1,686 Descending Washington Center
Sat 03:14:40 PM 37.2956 -77.6856 13° North 433 498 23,600 -2,083 Descending Washington Center
Sat 03:15:40 PM 37.4089 -77.6547 12° North 422 486 22,000 -793 Descending Washington Center
Sat 03:16:41 PM 37.5200 -77.6236 13° North 412 474 22,000 -694 Level Washington Center
Sat 03:17:41 PM 37.6289 -77.5953 12° North 407 468 20,600 -1,780 Descending Washington Center
Sat 03:18:39 PM 37.7358 -77.5664 12° North 402 463 18,500 -2,085 Descending Washington Center
Sat 03:19:39 PM 37.8342 -77.5375 13° North 382 440 16,500 -2,182 Descending Washington Center
Sat 03:20:40 PM 37.9328 -77.5111 12° North 367 422 14,100 -2,400 Descending Washington Center
Sat 03:21:39 PM 38.0289 -77.4844 12° North 355 409 11,700 -1,866 Descending Washington Center
Sat 03:22:39 PM 38.1106 -77.4708 North 350 403 10,400 -850 Descending Washington Center
Sat 03:23:39 PM 38.1925 -77.4411 16° North 321 369 10,000 -295 Descending Washington Center
Sat 03:24:41 PM 38.2617 -77.4006 25° Northeast 291 335 9,800 -689 Descending Washington Center
Sat 03:25:41 PM 38.3333 -77.3600 24° Northeast 275 316 8,600 -1,373 Descending Washington Center
Sat 03:26:39 PM 38.4083 -77.3589 North 265 305 7,100 -1,210 Descending Washington Center
Sat 03:27:40 PM 38.4856 -77.3636 357° North 265 305 6,200 -934 Descending Washington Center
Sat 03:28:41 PM 38.5625 -77.3653 359° North 271 312 5,200 -615 Descending Washington Center
Sat 03:29:37 PM 38.6333 -77.3667 359° North 265 305 5,000 -359 Descending Potomac TRACON
Sat 03:30:38 PM 38.7167 -77.3667 360° North 271 312 4,500 -476 Descending Potomac TRACON
Sat 03:31:43 PM 38.8000 -77.3500 North 267 307 4,000 -250 Descending Potomac TRACON
Sat 03:32:38 PM 38.8667 -77.3500 360° North 268 308 4,000 -313 Level Potomac TRACON
Sat 03:33:38 PM 38.9500 -77.3500 360° North 268 308 3,400 -600 Descending Potomac TRACON

Login

Don't have an account? Register now (free) for customized features, flight alerts, and more!